Time;durP1;ratioP1;P1;durP2;ratioP2;P2;SDS_P1;SDS_P2;PMS_P1;PMS_P2;Temp;Humidity;BMP_temperature;BMP_pressure;BME280_temperature;BME280_humidity;BME280_pressure;Samples;Min_cycle;Max_cycle;Signal;HPM_P1;HPM_P2
2022/12/26 00:00:52;;;;;;;4.60;4.20;;;;;;;11.12;100.00;99719.94;5002250;28;20259;-79
2022/12/26 00:03:18;;;;;;;4.07;3.73;;;;;;;11.12;100.00;99718.19;5003268;28;20268;-79
2022/12/26 00:05:46;;;;;;;4.20;3.80;;;;;;;10.96;100.00;99721.31;5005592;28;20195;-79
2022/12/26 00:08:12;;;;;;;3.53;3.23;;;;;;;10.99;100.00;99713.41;5004216;28;20208;-80
2022/12/26 00:10:38;;;;;;;4.27;3.97;;;;;;;11.00;100.00;99710.75;5001126;28;20203;-78
2022/12/26 00:13:05;;;;;;;4.27;3.80;;;;;;;11.07;100.00;99717.47;5000584;28;20234;-79
2022/12/26 00:15:33;;;;;;;4.30;4.00;;;;;;;11.10;100.00;99724.38;5002635;28;20690;-79
2022/12/26 00:17:59;;;;;;;4.57;4.27;;;;;;;10.96;100.00;99713.50;4998660;28;20289;-79
2022/12/26 00:20:25;;;;;;;4.00;3.70;;;;;;;11.06;100.00;99697.50;5005137;28;20218;-79
2022/12/26 00:22:54;;;;;;;6.47;4.10;;;;;;;10.88;100.00;99693.72;5004524;28;20204;-79
2022/12/26 00:25:20;;;;;;;5.87;5.47;;;;;;;10.79;100.00;99686.19;5004462;28;20258;-79
2022/12/26 00:27:46;;;;;;;5.27;4.87;;;;;;;10.82;100.00;99677.38;5003211;28;20203;-79
2022/12/26 00:30:13;;;;;;;6.97;6.47;;;;;;;10.83;100.00;99673.88;5004235;28;20226;-79
2022/12/26 00:32:39;;;;;;;6.47;5.97;;;;;;;10.75;100.00;99662.84;5003070;28;20199;-79
2022/12/26 00:35:06;;;;;;;6.77;6.17;;;;;;;10.81;100.00;99658.25;5004674;28;20208;-78
2022/12/26 00:37:32;;;;;;;6.73;6.13;;;;;;;10.90;100.00;99654.47;5002332;28;20207;-79
2022/12/26 00:40:00;;;;;;;6.80;6.20;;;;;;;10.88;100.00;99656.28;5003439;28;20280;-80
2022/12/26 00:42:26;;;;;;;6.03;5.53;;;;;;;10.88;100.00;99662.38;5007063;28;20213;-79
2022/12/26 00:44:53;;;;;;;6.13;5.60;;;;;;;10.96;100.00;99661.25;5014092;28;20253;-79
2022/12/26 00:47:19;;;;;;;6.60;6.00;;;;;;;10.98;100.00;99664.69;5014481;28;20203;-79
2022/12/26 00:49:49;;;;;;;5.80;5.37;;;;;;;10.98;100.00;99665.56;5023681;28;20752;-79
2022/12/26 00:52:15;;;;;;;5.13;4.83;;;;;;;10.90;100.00;99678.84;5033846;28;20217;-79
2022/12/26 00:54:42;;;;;;;5.40;4.97;;;;;;;10.96;100.00;99676.94;5034181;28;20672;-79
2022/12/26 00:57:09;;;;;;;5.60;5.20;;;;;;;11.02;100.00;99693.28;5033876;28;20206;-79
2022/12/26 00:59:36;;;;;;;4.77;4.33;;;;;;;10.84;100.00;99705.16;5034371;28;20242;-78
2022/12/26 01:02:36;;;;;;;5.10;4.70;;;;;;;10.93;100.00;99704.00;5034073;28;20209;-79
2022/12/26 01:04:48;;;;;;;5.17;4.77;;;;;;;10.92;100.00;99703.16;5034491;28;20253;-79
2022/12/26 01:07:15;;;;;;;5.50;5.03;;;;;;;10.98;100.00;99712.56;5034222;28;20206;-80
2022/12/26 01:09:41;;;;;;;5.20;4.80;;;;;;;10.91;100.00;99722.31;5034169;28;20230;-79
2022/12/26 01:12:07;;;;;;;5.37;4.97;;;;;;;10.89;100.00;99712.84;5034452;28;20206;-79
2022/12/26 01:14:35;;;;;;;5.10;4.80;;;;;;;10.96;100.00;99714.38;5034574;28;20252;-79
2022/12/26 01:17:02;;;;;;;5.47;5.07;;;;;;;10.87;100.00;99710.28;5035230;28;20692;-79
2022/12/26 01:19:29;;;;;;;5.17;4.77;;;;;;;10.95;100.00;99710.03;5034182;28;20317;-79
2022/12/26 01:21:55;;;;;;;4.83;4.53;;;;;;;11.01;100.00;99720.28;5034206;28;20198;-79
2022/12/26 01:24:24;;;;;;;5.07;4.73;;;;;;;11.01;100.00;99722.03;5034615;28;20283;-80
2022/12/26 01:26:50;;;;;;;5.30;4.90;;;;;;;10.95;100.00;99732.69;5034656;28;20580;-80
2022/12/26 01:29:16;;;;;;;5.40;5.00;;;;;;;10.79;100.00;99737.53;5034459;28;20225;-80
2022/12/26 01:31:44;;;;;;;5.53;5.13;;;;;;;10.91;100.00;99726.69;5034628;28;20264;-79
2022/12/26 01:34:10;;;;;;;6.00;5.60;;;;;;;10.91;100.00;99730.16;5035291;28;20198;-80
2022/12/26 01:36:37;;;;;;;5.83;5.33;;;;;;;10.93;100.00;99728.34;5035818;28;20214;-80
2022/12/26 01:39:03;;;;;;;5.77;5.37;;;;;;;10.91;100.00;99730.16;5035453;28;20279;-80
2022/12/26 01:41:32;;;;;;;5.50;5.10;;;;;;;10.93;100.00;99746.63;5035460;28;20236;-80
2022/12/26 01:44:00;;;;;;;5.23;4.83;;;;;;;10.99;100.00;99747.34;5034607;28;20249;-80
2022/12/26 01:46:31;;;;;;;4.97;4.67;;;;;;;10.96;100.00;99756.16;5035828;28;20206;-80
2022/12/26 01:49:02;;;;;;;5.33;5.03;;;;;;;11.02;100.00;99752.47;5034660;28;20234;-80
2022/12/26 01:51:33;;;;;;;5.53;5.03;;;;;;;10.98;100.00;99763.91;5034846;28;20206;-80
2022/12/26 01:54:04;;;;;;;4.87;4.57;;;;;;;10.95;100.00;99783.16;5039289;28;20247;-79
2022/12/26 01:56:34;;;;;;;4.63;4.33;;;;;;;10.89;100.00;99773.75;5039288;28;20216;-80
2022/12/26 01:59:06;;;;;;;5.30;4.90;;;;;;;10.82;100.00;99766.13;5040078;28;20284;-80
2022/12/26 02:01:37;;;;;;;5.03;4.60;;;;;;;10.81;100.00;99777.50;5039077;28;20206;-80
2022/12/26 02:06:52;;;;;;;5.10;4.73;;;;;;;10.92;100.00;99791.94;5039054;28;20293;-79
2022/12/26 02:09:19;;;;;;;4.80;4.40;;;;;;;10.95;100.00;99806.66;5039645;28;20364;-80
2022/12/26 02:11:51;;;;;;;4.30;4.00;;;;;;;10.94;100.00;99810.16;5039467;28;20205;-80
2022/12/26 02:14:18;;;;;;;4.43;4.13;;;;;;;10.98;100.00;99818.75;5039465;28;20683;-80
2022/12/26 02:16:45;;;;;;;5.37;4.97;;;;;;;10.95;100.00;99830.16;5039190;28;20207;-80
2022/12/26 02:19:25;;;;;;;5.63;5.23;;;;;;;10.83;100.00;99826.16;5039141;28;20652;-79
2022/12/26 02:22:11;;;;;;;5.60;5.20;;;;;;;10.83;100.00;99830.53;5039361;28;20233;-80
2022/12/26 02:25:02;;;;;;;5.90;5.50;;;;;;;10.90;100.00;99826.81;5038815;28;20230;-80
2022/12/26 02:27:56;;;;;;;5.17;4.77;;;;;;;10.96;100.00;99834.50;5038826;28;20209;-80
2022/12/26 02:30:31;;;;;;;6.17;5.70;;;;;;;10.84;100.00;99853.97;5038792;28;20208;-80
2022/12/26 02:33:21;;;;;;;6.00;5.60;;;;;;;10.90;100.00;99861.63;5039118;28;20347;-80
2022/12/26 02:36:01;;;;;;;6.07;5.67;;;;;;;10.88;100.00;99863.44;5035402;28;20675;-80
2022/12/26 02:38:36;;;;;;;6.30;5.83;;;;;;;10.95;100.00;99842.38;5039508;28;20287;-80
2022/12/26 02:41:18;;;;;;;6.27;5.87;;;;;;;10.91;100.00;99860.72;5038220;28;20673;-79
2022/12/26 02:43:56;;;;;;;5.80;5.40;;;;;;;10.93;100.00;99848.47;5038458;28;20823;-80
2022/12/26 02:49:21;;;;;;;6.30;5.80;;;;;;;11.01;100.00;99843.03;5039203;28;20229;-80
2022/12/26 03:14:37;;;;;;;8.50;7.90;;;;;;;10.72;100.00;99836.03;4996779;28;20241;-80
2022/12/26 03:17:18;;;;;;;7.80;7.20;;;;;;;10.82;100.00;99819.25;5030298;28;20205;-80
2022/12/26 03:19:59;;;;;;;9.27;8.60;;;;;;;10.89;100.00;99817.28;5038578;28;20225;-80
2022/12/26 03:22:33;;;;;;;8.97;8.37;;;;;;;10.93;100.00;99818.91;5039153;28;20256;-80
2022/12/26 03:27:47;;;;;;;9.07;8.37;;;;;;;10.91;100.00;99816.31;5038277;28;20212;-80
2022/12/26 03:33:01;;;;;;;9.20;8.50;;;;;;;10.99;100.00;99831.75;5037261;28;20639;-80
2022/12/26 03:35:31;;;;;;;9.00;8.30;;;;;;;10.89;100.00;99836.41;5036601;28;20202;-80
2022/12/26 03:38:04;;;;;;;9.43;8.63;;;;;;;10.99;100.00;99842.22;5036249;28;20217;-80
2022/12/26 04:20:36;;;;;;;11.70;10.90;;;;;;;10.76;100.00;99840.28;5035650;28;20213;-79
2022/12/26 04:45:41;;;;;;;9.67;8.97;;;;;;;10.99;100.00;99883.16;5035707;28;20236;-79
2022/12/26 04:50:52;;;;;;;7.70;7.17;;;;;;;10.86;100.00;99866.97;5035071;28;20209;-80
2022/12/26 04:53:20;;;;;;;7.40;6.83;;;;;;;10.90;100.00;99873.81;5034547;28;20267;-80
2022/12/26 04:55:47;;;;;;;7.20;6.70;;;;;;;10.97;100.00;99869.28;5034392;28;20644;-80
2022/12/26 04:58:15;;;;;;;6.47;6.07;;;;;;;10.99;100.00;99873.56;5034576;28;20210;-79
2022/12/26 05:00:43;;;;;;;5.93;5.53;;;;;;;11.00;100.00;99885.72;5033858;28;20209;-80
2022/12/26 05:11:26;;;;;;;4.30;4.00;;;;;;;10.97;100.00;99891.03;5033804;28;20288;-80
2022/12/26 05:13:55;;;;;;;4.03;3.73;;;;;;;10.89;100.00;99890.41;5034790;28;20279;-80
2022/12/26 05:30:14;;;;;;;4.60;4.30;;;;;;;10.64;100.00;99898.91;5034090;28;20221;-80
2022/12/26 05:35:23;;;;;;;4.60;4.30;;;;;;;10.56;100.00;99889.59;5034044;28;20204;-80
2022/12/26 05:37:50;;;;;;;4.47;4.17;;;;;;;10.48;100.00;99876.75;5034094;28;20861;-80
2022/12/26 05:40:16;;;;;;;4.87;4.47;;;;;;;10.27;100.00;99865.13;5033667;28;20230;-80
2022/12/26 05:42:43;;;;;;;6.30;5.80;;;;;;;10.32;100.00;99851.06;5033942;28;20206;-80
2022/12/26 05:45:10;;;;;;;9.73;8.80;;;;;;;10.19;100.00;99854.03;5033901;28;20229;-80
2022/12/26 05:47:37;;;;;;;9.13;8.43;;;;;;;10.13;100.00;99848.09;5033739;28;20210;-80
2022/12/26 05:50:04;;;;;;;9.00;8.10;;;;;;;10.09;100.00;99838.66;5033005;28;20230;-80
2022/12/26 05:52:30;;;;;;;9.87;9.17;;;;;;;10.02;100.00;99842.28;5033686;28;20233;-80
2022/12/26 05:54:57;;;;;;;10.40;9.70;;;;;;;9.99;100.00;99834.56;5033736;28;20210;-80
2022/12/26 05:57:23;;;;;;;11.33;10.43;;;;;;;10.02;100.00;99839.69;5033711;28;20635;-80
2022/12/26 06:02:17;;;;;;;12.53;11.47;;;;;;;9.85;100.00;99839.25;5030552;28;20611;-77
2022/12/26 06:04:45;;;;;;;11.90;11.00;;;;;;;9.81;100.00;99858.50;5032274;28;20224;-77
2022/12/26 06:07:11;;;;;;;11.87;10.97;;;;;;;9.90;100.00;99858.25;5032356;28;20228;-77
2022/12/26 06:09:38;;;;;;;12.50;11.50;;;;;;;9.87;100.00;99871.38;5032001;28;20635;-78
2022/12/26 06:12:04;;;;;;;12.27;11.33;;;;;;;9.85;100.00;99876.63;5032034;28;20209;-77
2022/12/26 06:14:31;;;;;;;12.03;11.07;;;;;;;9.89;100.00;99872.19;5032544;28;20560;-78
2022/12/26 06:16:57;;;;;;;12.60;11.60;;;;;;;9.80;100.00;99872.44;5032526;28;20295;-78
2022/12/26 06:19:23;;;;;;;11.67;10.67;;;;;;;9.77;100.00;99875.09;5032398;28;20210;-78
2022/12/26 06:21:51;;;;;;;12.30;11.30;;;;;;;9.90;100.00;99884.34;5032298;28;20205;-77
2022/12/26 06:24:18;;;;;;;11.50;10.67;;;;;;;9.88;100.00;99881.75;5032268;28;20744;-78
2022/12/26 06:26:44;;;;;;;10.60;9.80;;;;;;;9.92;100.00;99895.56;5032494;28;20252;-77
2022/12/26 06:29:10;;;;;;;12.57;11.27;;;;;;;9.87;100.00;99898.31;5032326;28;20235;-77
2022/12/26 06:31:37;;;;;;;10.60;9.80;;;;;;;9.92;100.00;99901.63;5032274;28;20221;-77
2022/12/26 06:34:03;;;;;;;11.77;10.87;;;;;;;9.77;100.00;99909.81;5032274;28;20209;-78
2022/12/26 06:36:30;;;;;;;11.60;10.70;;;;;;;9.79;100.00;99913.28;5032006;28;20630;-77
2022/12/26 06:38:59;;;;;;;11.87;10.87;;;;;;;9.77;100.00;99908.97;5034353;28;20247;-77
2022/12/26 06:41:26;;;;;;;9.73;9.03;;;;;;;9.79;100.00;99915.00;5035968;28;20205;-77
2022/12/26 06:43:54;;;;;;;9.67;8.97;;;;;;;9.87;100.00;99940.03;5036252;28;20236;-78
2022/12/26 06:46:22;;;;;;;9.37;8.67;;;;;;;9.97;100.00;99956.31;5036042;28;20709;-77
2022/12/26 06:48:49;;;;;;;8.97;8.33;;;;;;;9.94;100.00;99958.97;5035002;28;20226;-78
2022/12/26 06:51:18;;;;;;;8.27;7.67;;;;;;;9.93;100.00;99972.91;5035483;28;20208;-77
2022/12/26 06:53:45;;;;;;;8.87;8.23;;;;;;;9.89;100.00;99989.50;5035643;28;20206;-78
2022/12/26 06:56:14;;;;;;;7.80;7.30;;;;;;;9.97;100.00;99984.97;5035333;28;20670;-78
2022/12/26 06:58:41;;;;;;;7.73;7.13;;;;;;;9.90;100.00;99983.41;5035535;28;20710;-78
2022/12/26 07:01:09;;;;;;;7.50;7.00;;;;;;;9.87;100.00;99986.06;5035126;28;20221;-77
2022/12/26 07:03:35;;;;;;;7.30;6.80;;;;;;;9.76;100.00;99983.72;5035489;28;20205;-77
2022/12/26 07:06:03;;;;;;;7.60;7.07;;;;;;;9.81;100.00;99981.88;5035490;28;20714;-77
2022/12/26 07:08:30;;;;;;;7.70;7.20;;;;;;;9.92;100.00;99985.06;5036070;28;20228;-77
2022/12/26 07:10:56;;;;;;;7.97;7.20;;;;;;;9.99;100.00;99992.75;5035181;28;20205;-78
2022/12/26 07:13:24;;;;;;;7.53;6.93;;;;;;;9.88;100.00;100006.88;5028573;28;20271;-77
2022/12/26 07:15:50;;;;;;;7.53;6.93;;;;;;;9.89;100.00;100008.63;5017921;28;20210;-77
2022/12/26 07:18:17;;;;;;;7.00;6.40;;;;;;;9.88;100.00;100027.75;5015494;28;20777;-78
2022/12/26 07:20:43;;;;;;;6.37;5.97;;;;;;;9.94;100.00;100032.81;5015499;28;20202;-77
2022/12/26 07:23:09;;;;;;;7.60;6.90;;;;;;;9.90;99.90;100035.53;5015303;28;20214;-77
2022/12/26 07:25:36;;;;;;;6.63;6.23;;;;;;;9.93;99.81;100053.72;5015150;28;20229;-77
2022/12/26 07:28:03;;;;;;;7.63;7.03;;;;;;;9.94;99.84;100060.66;5014766;28;20242;-76
2022/12/26 07:30:31;;;;;;;8.10;7.40;;;;;;;10.03;100.00;100059.56;5014052;28;20211;-78
2022/12/26 07:32:57;;;;;;;10.23;9.53;;;;;;;10.01;99.57;100063.97;5014161;28;20207;-76
2022/12/26 07:35:24;;;;;;;7.27;6.70;;;;;;;10.07;98.93;100084.72;5013836;28;20621;-75
2022/12/26 07:37:51;;;;;;;6.57;6.07;;;;;;;10.04;98.50;100101.25;5014231;28;20235;-75
2022/12/26 07:40:18;;;;;;;6.20;5.70;;;;;;;9.93;97.71;100109.34;5014034;28;20349;-75
2022/12/26 07:42:44;;;;;;;5.77;5.27;;;;;;;9.94;97.94;100102.38;5013834;28;20236;-77
2022/12/26 07:45:10;;;;;;;5.33;4.93;;;;;;;10.04;97.30;100097.81;5013771;28;20778;-76
2022/12/26 07:47:38;;;;;;;5.63;5.23;;;;;;;10.07;97.95;100101.22;5013965;28;20238;-76
2022/12/26 07:50:05;;;;;;;5.07;4.57;;;;;;;10.00;97.24;100110.03;5012359;28;20256;-76
2022/12/26 07:52:32;;;;;;;4.63;4.30;;;;;;;9.98;96.97;100127.47;5013972;28;20205;-76
2022/12/26 07:54:58;;;;;;;4.57;4.17;;;;;;;9.90;96.70;100145.03;5013627;28;20269;-76
2022/12/26 07:57:24;;;;;;;3.93;3.63;;;;;;;9.91;96.85;100145.00;5013799;28;20233;-76
2022/12/26 07:59:51;;;;;;;4.20;3.90;;;;;;;9.90;96.50;100151.09;5013740;28;20209;-76
2022/12/26 08:02:17;;;;;;;3.10;2.90;;;;;;;9.79;95.30;100180.88;5014101;28;20273;-77
2022/12/26 08:04:45;;;;;;;3.53;3.23;;;;;;;9.86;95.61;100180.72;5014087;28;20214;-77
2022/12/26 08:07:11;;;;;;;3.43;3.13;;;;;;;9.79;95.58;100173.06;5014563;28;20281;-78
2022/12/26 08:09:41;;;;;;;3.50;3.20;;;;;;;9.84;95.62;100160.81;5014955;28;20205;-78
2022/12/26 08:12:08;;;;;;;3.83;3.50;;;;;;;9.89;95.03;100165.03;5015602;28;20215;-79
2022/12/26 08:14:36;;;;;;;3.60;3.40;;;;;;;9.83;93.99;100185.16;5015994;28;20575;-80
2022/12/26 08:17:02;;;;;;;3.50;3.20;;;;;;;9.98;94.39;100200.47;5016227;28;20206;-79
2022/12/26 08:19:29;;;;;;;3.23;3.03;;;;;;;10.00;94.01;100200.47;5015941;28;20216;-79
2022/12/26 08:21:56;;;;;;;4.20;3.90;;;;;;;9.85;93.78;100207.72;5015797;28;20208;-79
2022/12/26 08:24:23;;;;;;;4.17;3.87;;;;;;;9.94;93.88;100211.88;5015765;28;20206;-81
2022/12/26 08:26:49;;;;;;;4.80;4.40;;;;;;;9.81;94.12;100200.84;5027392;28;20253;-81
2022/12/26 08:29:16;;;;;;;4.90;4.50;;;;;;;9.66;94.57;100182.88;5028705;28;20197;-75
2022/12/26 08:31:42;;;;;;;5.17;4.77;;;;;;;9.87;94.84;100179.84;5022790;28;20545;-75
2022/12/26 08:34:08;;;;;;;5.87;5.27;;;;;;;9.99;94.68;100168.31;5021372;28;20248;-76
2022/12/26 08:36:35;;;;;;;6.43;5.93;;;;;;;9.98;94.57;100169.19;5022787;28;20234;-76
2022/12/26 08:39:02;;;;;;;7.80;7.20;;;;;;;9.98;94.66;100182.22;5022470;28;20218;-76
2022/12/26 08:41:29;;;;;;;7.30;6.70;;;;;;;10.01;94.95;100178.69;5019087;28;20271;-75
2022/12/26 08:43:55;;;;;;;6.83;6.20;;;;;;;10.02;95.17;100175.22;5022012;28;20197;-76
2022/12/26 08:46:22;;;;;;;6.13;5.73;;;;;;;9.98;94.76;100176.16;5024088;28;20575;-78
2022/12/26 08:48:50;;;;;;;5.73;5.33;;;;;;;9.98;94.83;100181.38;5022895;28;20356;-77
2022/12/26 08:51:19;;;;;;;6.13;5.73;;;;;;;9.74;95.86;100167.94;5013630;28;20256;-77
2022/12/26 08:53:46;;;;;;;6.93;6.43;;;;;;;9.81;96.38;100140.88;5012775;28;20210;-77
2022/12/26 08:56:16;;;;;;;6.70;6.20;;;;;;;9.82;96.48;100133.91;5012635;28;20220;-77
2022/12/26 08:58:43;;;;;;;7.83;7.13;;;;;;;9.70;97.13;100120.25;5012525;28;20230;-76
2022/12/26 09:01:12;;;;;;;8.50;7.87;;;;;;;9.81;97.66;100117.41;5028726;28;20221;-77
2022/12/26 09:03:39;;;;;;;9.03;8.33;;;;;;;9.89;97.62;100098.97;5029085;28;20836;-77
2022/12/26 09:06:06;;;;;;;7.90;7.40;;;;;;;10.02;97.59;100120.44;5029329;28;20305;-77
2022/12/26 09:08:33;;;;;;;6.80;6.30;;;;;;;9.89;96.34;100141.56;5028902;28;20290;-78
2022/12/26 09:11:02;;;;;;;8.43;7.83;;;;;;;9.81;96.58;100153.91;5028623;28;20223;-76
2022/12/26 09:13:30;;;;;;;6.83;6.33;;;;;;;10.01;97.83;100121.31;5029171;28;20301;-76
2022/12/26 09:16:04;;;;;;;6.17;5.67;;;;;;;9.97;96.65;100151.84;5028999;28;20232;-76
2022/12/26 09:18:31;;;;;;;6.33;5.87;;;;;;;10.03;95.89;100180.41;5028535;28;20268;-75
2022/12/26 09:20:59;;;;;;;7.97;7.37;;;;;;;10.16;96.12;100169.69;5028370;28;20205;-76
2022/12/26 09:23:26;;;;;;;7.83;7.23;;;;;;;9.86;96.65;100162.47;5028767;28;20244;-76
2022/12/26 09:25:52;;;;;;;7.03;6.53;;;;;;;10.06;98.30;100125.56;5028412;28;20218;-75
2022/12/26 09:28:18;;;;;;;7.50;6.87;;;;;;;10.11;97.74;100120.25;5028360;28;20233;-76
2022/12/26 09:30:46;;;;;;;8.00;7.20;;;;;;;10.15;98.54;100101.03;5028211;28;20786;-75
2022/12/26 09:33:12;;;;;;;10.90;9.93;;;;;;;10.35;100.00;100066.69;5028860;28;20559;-75
2022/12/26 09:35:39;;;;;;;8.93;8.20;;;;;;;10.34;99.85;100083.22;5028207;28;20205;-76
2022/12/26 09:38:06;;;;;;;8.73;8.03;;;;;;;10.42;100.00;100068.25;5028684;28;20284;-73
2022/12/26 09:40:48;;;;;;;9.33;8.63;;;;;;;10.35;97.89;100108.44;5028109;28;20221;-73
2022/12/26 09:43:24;;;;;;;8.30;7.70;;;;;;;10.40;97.27;100124.81;5028139;28;20210;-76
2022/12/26 09:46:05;;;;;;;9.50;8.80;;;;;;;10.45;96.53;100150.84;5028237;28;20264;-75
2022/12/26 09:48:39;;;;;;;9.93;9.03;;;;;;;10.58;96.65;100157.47;5028150;28;20229;-76
2022/12/26 09:51:05;;;;;;;9.73;8.87;;;;;;;10.55;95.80;100167.13;5027277;28;20213;-75
2022/12/26 09:53:36;;;;;;;9.00;8.37;;;;;;;10.56;96.30;100172.28;5027806;28;20209;-76
2022/12/26 09:56:06;;;;;;;8.00;7.30;;;;;;;10.64;95.79;100174.72;5027573;28;20205;-76
2022/12/26 09:58:35;;;;;;;8.60;8.00;;;;;;;10.58;94.05;100216.63;5027834;28;20274;-75
2022/12/26 10:01:08;;;;;;;8.10;7.57;;;;;;;10.40;93.63;100236.16;5027139;28;20212;-77
2022/12/26 10:03:38;;;;;;;9.13;8.43;;;;;;;10.57;93.88;100215.78;5028266;28;20212;-77
2022/12/26 10:06:13;;;;;;;8.90;8.23;;;;;;;10.73;95.20;100201.47;5027712;28;20229;-76
2022/12/26 10:09:09;;;;;;;7.50;7.00;;;;;;;10.75;93.54;100219.72;5027281;28;20223;-75
2022/12/26 10:11:49;;;;;;;6.80;6.33;;;;;;;10.75;92.01;100258.88;5004266;28;20210;-75
2022/12/26 10:14:21;;;;;;;6.87;6.37;;;;;;;10.92;93.23;100234.97;5030760;28;20213;-76
2022/12/26 10:16:54;;;;;;;6.30;5.90;;;;;;;10.88;92.03;100262.94;5031576;28;20209;-75
2022/12/26 10:19:34;;;;;;;6.37;5.77;;;;;;;10.99;91.58;100267.91;5031050;28;20635;-75
2022/12/26 10:22:18;;;;;;;6.20;5.70;;;;;;;11.03;91.28;100277.38;5031268;28;20213;-76
2022/12/26 10:24:47;;;;;;;5.53;5.23;;;;;;;10.95;89.74;100315.03;5031894;28;20257;-75
2022/12/26 10:27:17;;;;;;;4.63;4.30;;;;;;;10.88;89.48;100328.22;5031798;28;20234;-76
2022/12/26 10:29:49;;;;;;;5.13;4.73;;;;;;;10.89;89.31;100339.53;5031410;28;20666;-76
2022/12/26 10:32:21;;;;;;;5.57;4.77;;;;;;;10.82;89.41;100341.41;5031461;28;20433;-76
2022/12/26 10:34:49;;;;;;;3.77;3.47;;;;;;;10.56;88.93;100352.38;5031627;28;20208;-76
2022/12/26 10:37:22;;;;;;;4.30;4.00;;;;;;;10.60;88.99;100343.59;5034321;28;20230;-76
2022/12/26 10:39:55;;;;;;;4.07;3.77;;;;;;;10.62;88.74;100365.31;5026143;28;20198;-76
2022/12/26 10:42:25;;;;;;;4.27;3.70;;;;;;;10.45;89.71;100338.72;5024652;28;20714;-76
2022/12/26 10:44:51;;;;;;;3.67;3.30;;;;;;;10.51;89.97;100325.53;5025636;28;20205;-76
2022/12/26 10:47:24;;;;;;;3.90;3.70;;;;;;;10.56;89.70;100325.44;5023895;28;20226;-76
2022/12/26 10:49:52;;;;;;;4.00;3.70;;;;;;;10.56;89.83;100315.84;5023393;28;20218;-76
2022/12/26 10:52:26;;;;;;;4.23;3.93;;;;;;;10.51;88.32;100341.19;5023880;28;20678;-76
2022/12/26 10:54:56;;;;;;;3.50;3.20;;;;;;;10.48;89.11;100330.81;5017419;28;20206;-76
2022/12/26 10:57:23;;;;;;;4.20;3.90;;;;;;;10.71;89.61;100322.50;5015100;28;20253;-76
2022/12/26 10:59:54;;;;;;;4.13;3.83;;;;;;;10.75;89.51;100318.09;5014545;28;20268;-76
2022/12/26 11:02:26;;;;;;;3.60;3.30;;;;;;;10.68;89.24;100306.91;5015075;28;20261;-75
2022/12/26 11:05:06;;;;;;;4.43;4.10;;;;;;;10.71;89.10;100315.53;5014394;28;20207;-75
2022/12/26 11:07:35;;;;;;;4.13;3.83;;;;;;;10.79;89.01;100322.34;5014983;28;20670;-76
2022/12/26 11:10:05;;;;;;;3.80;3.60;;;;;;;10.74;88.49;100338.09;5014060;28;20837;-75
2022/12/26 11:12:39;;;;;;;4.40;4.10;;;;;;;10.81;88.87;100326.63;5015124;28;20213;-76
2022/12/26 11:15:19;;;;;;;4.27;3.97;;;;;;;10.83;89.00;100321.38;5014449;28;20668;-76
2022/12/26 11:17:49;;;;;;;3.30;3.10;;;;;;;10.72;88.28;100327.69;5014421;28;20582;-75
2022/12/26 11:20:24;;;;;;;4.87;4.47;;;;;;;10.82;87.71;100337.94;5014236;28;20290;-76
2022/12/26 11:22:51;;;;;;;4.20;3.90;;;;;;;10.87;88.22;100349.16;5014644;28;20198;-76
2022/12/26 11:25:20;;;;;;;3.23;3.03;;;;;;;10.87;88.10;100344.78;5014737;28;20259;-76
2022/12/26 11:27:49;;;;;;;4.50;4.10;;;;;;;10.89;88.61;100331.69;5014124;28;20234;-77
2022/12/26 11:30:22;;;;;;;5.93;5.30;;;;;;;10.86;87.99;100342.19;5013951;28;20766;-75
2022/12/26 11:33:03;;;;;;;4.50;4.03;;;;;;;10.90;87.04;100354.28;5014036;28;20612;-77
2022/12/26 11:35:35;;;;;;;2.80;2.60;;;;;;;10.93;85.59;100389.03;5014416;28;20213;-76
2022/12/26 11:38:04;;;;;;;1.87;1.77;;;;;;;10.81;83.50;100423.25;5014133;28;20230;-76
2022/12/26 11:40:35;;;;;;;3.20;2.23;;;;;;;10.79;83.60;100442.44;5014124;28;20209;-76
2022/12/26 11:43:05;;;;;;;2.60;2.40;;;;;;;10.82;83.69;100460.66;5013962;28;20249;-76
2022/12/26 11:45:36;;;;;;;2.07;1.90;;;;;;;10.87;84.10;100459.69;5014353;28;20213;-78
2022/12/26 11:48:17;;;;;;;2.40;1.83;;;;;;;10.88;82.70;100491.88;5013812;28;20285;-76
2022/12/26 11:50:45;;;;;;;3.53;1.83;;;;;;;10.88;82.87;100497.09;5013853;28;20214;-76
2022/12/26 11:53:16;;;;;;;3.83;2.10;;;;;;;10.84;82.13;100504.16;5013864;28;20340;-76
2022/12/26 11:55:43;;;;;;;2.10;1.90;;;;;;;10.70;82.16;100498.28;5013935;28;20194;-76
2022/12/26 11:58:19;;;;;;;2.53;2.33;;;;;;;10.83;81.92;100509.38;5013512;28;20723;-77
2022/12/26 12:01:11;;;;;;;3.23;1.90;;;;;;;10.79;79.87;100554.72;5044407;23;20261;-83
2022/12/26 12:03:41;;;;;;;2.30;2.20;;;;;;;10.81;80.05;100571.22;5018817;28;20464;-82
2022/12/26 12:06:22;;;;;;;2.93;2.70;;;;;;;10.87;80.60;100551.06;5016909;28;20207;-83
2022/12/26 12:08:58;;;;;;;2.23;2.10;;;;;;;10.88;80.28;100549.31;5017135;28;20210;-83
2022/12/26 12:11:35;;;;;;;4.53;2.50;;;;;;;10.80;79.45;100559.94;4996661;28;20226;-83
2022/12/26 12:14:17;;;;;;;2.07;1.97;;;;;;;10.92;80.89;100530.97;5003575;28;20593;-82
2022/12/26 12:16:56;;;;;;;2.40;2.20;;;;;;;10.81;79.42;100527.69;5007148;28;20453;-83
2022/12/26 12:19:42;;;;;;;3.23;2.87;;;;;;;10.97;81.05;100514.34;5006316;28;20299;-83
2022/12/26 12:22:26;;;;;;;2.30;2.10;;;;;;;10.86;80.20;100514.53;5004401;28;20251;-83
2022/12/26 12:25:14;;;;;;;2.30;2.10;;;;;;;10.80;80.80;100496.38;5004208;28;20742;-82
2022/12/26 12:27:46;;;;;;;3.93;2.90;;;;;;;10.92;81.87;100467.41;5005933;28;20219;-83
2022/12/26 12:30:19;;;;;;;2.50;2.30;;;;;;;10.91;80.90;100456.09;5004977;28;20756;-83
2022/12/26 12:33:08;;;;;;;3.23;2.30;;;;;;;10.93;81.56;100464.78;5006095;28;20214;-83
2022/12/26 12:35:48;;;;;;;2.37;2.20;;;;;;;10.76;81.17;100460.78;5002574;28;20211;-82
2022/12/26 12:38:28;;;;;;;2.93;2.40;;;;;;;10.82;81.56;100460.66;4995283;28;20211;-83
2022/12/26 12:41:06;;;;;;;3.63;2.40;;;;;;;10.86;82.23;100449.25;4995397;28;20666;-82
2022/12/26 12:43:42;;;;;;;1.93;1.77;;;;;;;10.83;82.17;100446.72;4995359;28;20206;-83
2022/12/26 12:46:18;;;;;;;2.83;2.00;;;;;;;10.75;81.71;100433.81;4995454;28;20199;-81
2022/12/26 12:49:23;;;;;;;2.87;2.13;;;;;;;10.72;82.01;100442.56;4995168;28;20877;-82
2022/12/26 12:52:02;;;;;;;20.30;16.47;;;;;;;10.72;81.40;100429.53;4997819;28;20680;-82
2022/12/26 12:54:48;;;;;;;2.83;2.10;;;;;;;10.66;81.79;100429.66;5006204;28;20199;-83
2022/12/26 12:57:23;;;;;;;3.07;2.40;;;;;;;10.78;82.14;100398.94;5007147;28;20226;-83
2022/12/26 13:00:01;;;;;;;4.77;2.60;;;;;;;10.93;82.71;100375.13;5004575;28;20234;-79
2022/12/26 13:02:35;;;;;;;2.73;2.07;;;;;;;10.97;81.42;100407.25;5004630;28;20205;-81
2022/12/26 13:05:14;;;;;;;2.20;2.10;;;;;;;11.04;81.62;100401.88;5003663;28;20601;-82
2022/12/26 13:07:47;;;;;;;1.70;1.60;;;;;;;10.84;80.60;100424.91;5005023;28;20226;-83
2022/12/26 13:10:19;;;;;;;4.03;2.23;;;;;;;10.87;80.35;100446.63;5004789;28;20236;-83
2022/12/26 13:12:47;;;;;;;2.30;1.90;;;;;;;10.92;80.95;100434.34;4314628;28;10000714;-82
2022/12/26 13:15:24;;;;;;;1.90;1.70;;;;;;;10.89;80.60;100433.53;5000097;28;20265;-83
2022/12/26 13:18:02;;;;;;;1.43;1.33;;;;;;;10.77;80.57;100434.63;5001857;28;20748;-81
2022/12/26 13:20:34;;;;;;;2.30;1.60;;;;;;;10.82;80.82;100434.53;5001703;28;20598;-82
2022/12/26 13:26:03;;;;;;;2.40;1.50;;;;;;;10.77;81.05;100424.19;5002413;28;20255;-83
2022/12/26 13:28:37;;;;;;;2.80;1.40;;;;;;;10.79;81.57;100421.56;5000104;28;20254;-82
2022/12/26 13:31:04;;;;;;;2.00;1.17;;;;;;;10.62;80.79;100427.94;5000145;28;20217;-83
2022/12/26 13:33:31;;;;;;;1.40;1.30;;;;;;;10.68;80.26;100445.25;5003610;28;20200;-82
2022/12/26 13:35:59;;;;;;;1.20;1.20;;;;;;;10.68;80.73;100437.41;5001985;28;20262;-81
2022/12/26 13:39:04;;;;;;;1.40;1.17;;;;;;;10.69;79.87;100452.22;5000346;28;20206;-83
2022/12/26 13:44:25;;;;;;;3.80;1.53;;;;;;;10.79;81.02;100445.06;5003350;28;20241;-84
2022/12/26 13:46:56;;;;;;;2.23;1.13;;;;;;;10.74;81.15;100445.13;5001973;28;20222;-82
2022/12/26 13:49:29;;;;;;;2.07;1.30;;;;;;;10.72;81.98;100410.38;5004811;28;20285;-82
2022/12/26 13:51:58;;;;;;;1.40;1.20;;;;;;;10.64;81.13;100412.28;5004807;28;20206;-82
2022/12/26 13:54:27;;;;;;;1.60;1.50;;;;;;;10.71;81.45;100409.50;5004305;28;20207;-83